sensor_id;sensor_type;location;lat;lon;timestamp;P1;durP1;ratioP1;P2;durP2;ratioP2
67747;SDS011;54543;50.712;6.070;2022-11-20T00:01:39;13.50;;;6.03;;
67747;SDS011;54543;50.712;6.070;2022-11-20T00:04:05;14.00;;;6.32;;
67747;SDS011;54543;50.712;6.070;2022-11-20T00:06:31;14.10;;;5.78;;
67747;SDS011;54543;50.712;6.070;2022-11-20T00:08:58;12.27;;;5.85;;
67747;SDS011;54543;50.712;6.070;2022-11-20T00:11:25;13.20;;;5.95;;
67747;SDS011;54543;50.712;6.070;2022-11-20T00:13:53;13.77;;;6.10;;
67747;SDS011;54543;50.712;6.070;2022-11-20T00:16:23;14.00;;;6.47;;
67747;SDS011;54543;50.712;6.070;2022-11-20T00:18:50;13.73;;;6.03;;
67747;SDS011;54543;50.712;6.070;2022-11-20T00:21:17;15.20;;;6.10;;
67747;SDS011;54543;50.712;6.070;2022-11-20T00:23:44;14.27;;;6.30;;
67747;SDS011;54543;50.712;6.070;2022-11-20T00:26:11;14.93;;;5.82;;
67747;SDS011;54543;50.712;6.070;2022-11-20T00:28:40;14.07;;;6.30;;
67747;SDS011;54543;50.712;6.070;2022-11-20T00:31:07;14.15;;;5.97;;
67747;SDS011;54543;50.712;6.070;2022-11-20T00:33:37;11.93;;;5.03;;
67747;SDS011;54543;50.712;6.070;2022-11-20T00:36:04;12.15;;;5.40;;
67747;SDS011;54543;50.712;6.070;2022-11-20T00:38:40;15.13;;;6.18;;
67747;SDS011;54543;50.712;6.070;2022-11-20T00:41:07;13.40;;;5.72;;
67747;SDS011;54543;50.712;6.070;2022-11-20T00:43:34;12.73;;;5.88;;
67747;SDS011;54543;50.712;6.070;2022-11-20T00:46:08;14.82;;;6.10;;
67747;SDS011;54543;50.712;6.070;2022-11-20T00:48:44;12.43;;;5.45;;
67747;SDS011;54543;50.712;6.070;2022-11-20T00:51:11;14.40;;;5.60;;
67747;SDS011;54543;50.712;6.070;2022-11-20T00:53:38;13.25;;;5.35;;
67747;SDS011;54543;50.712;6.070;2022-11-20T00:56:05;15.15;;;6.88;;
67747;SDS011;54543;50.712;6.070;2022-11-20T00:58:33;11.32;;;5.38;;
67747;SDS011;54543;50.712;6.070;2022-11-20T01:01:03;13.35;;;5.68;;
67747;SDS011;54543;50.712;6.070;2022-11-20T01:03:33;12.57;;;5.43;;
67747;SDS011;54543;50.712;6.070;2022-11-20T01:06:03;14.32;;;5.55;;
67747;SDS011;54543;50.712;6.070;2022-11-20T01:08:40;13.40;;;5.47;;
67747;SDS011;54543;50.712;6.070;2022-11-20T01:11:09;12.70;;;5.18;;
67747;SDS011;54543;50.712;6.070;2022-11-20T01:13:36;14.38;;;6.13;;
67747;SDS011;54543;50.712;6.070;2022-11-20T01:16:12;16.23;;;6.25;;
67747;SDS011;54543;50.712;6.070;2022-11-20T01:18:40;13.20;;;6.32;;
67747;SDS011;54543;50.712;6.070;2022-11-20T01:21:09;14.75;;;6.22;;
67747;SDS011;54543;50.712;6.070;2022-11-20T01:23:37;13.65;;;5.72;;
67747;SDS011;54543;50.712;6.070;2022-11-20T01:26:05;15.15;;;6.60;;
67747;SDS011;54543;50.712;6.070;2022-11-20T01:28:33;12.98;;;5.68;;
67747;SDS011;54543;50.712;6.070;2022-11-20T01:30:59;13.43;;;5.53;;
67747;SDS011;54543;50.712;6.070;2022-11-20T01:33:26;13.70;;;5.78;;
67747;SDS011;54543;50.712;6.070;2022-11-20T01:35:52;14.35;;;5.97;;
67747;SDS011;54543;50.712;6.070;2022-11-20T01:38:18;14.65;;;5.88;;
67747;SDS011;54543;50.712;6.070;2022-11-20T01:40:45;12.77;;;5.22;;
67747;SDS011;54543;50.712;6.070;2022-11-20T01:43:17;15.85;;;5.90;;
67747;SDS011;54543;50.712;6.070;2022-11-20T01:48:24;13.23;;;5.20;;
67747;SDS011;54543;50.712;6.070;2022-11-20T01:50:52;13.25;;;5.63;;
67747;SDS011;54543;50.712;6.070;2022-11-20T01:53:21;13.02;;;5.35;;
67747;SDS011;54543;50.712;6.070;2022-11-20T01:55:51;13.32;;;5.38;;
67747;SDS011;54543;50.712;6.070;2022-11-20T01:58:20;14.48;;;5.90;;
67747;SDS011;54543;50.712;6.070;2022-11-20T02:00:51;11.30;;;5.35;;
67747;SDS011;54543;50.712;6.070;2022-11-20T02:03:17;13.38;;;5.78;;
67747;SDS011;54543;50.712;6.070;2022-11-20T02:05:46;12.18;;;5.55;;
67747;SDS011;54543;50.712;6.070;2022-11-20T02:08:28;13.10;;;5.07;;
67747;SDS011;54543;50.712;6.070;2022-11-20T02:10:54;11.55;;;4.57;;
67747;SDS011;54543;50.712;6.070;2022-11-20T02:13:19;14.77;;;6.05;;
67747;SDS011;54543;50.712;6.070;2022-11-20T02:16:03;12.88;;;5.45;;
67747;SDS011;54543;50.712;6.070;2022-11-20T02:18:33;12.32;;;4.93;;
67747;SDS011;54543;50.712;6.070;2022-11-20T02:21:01;13.10;;;5.85;;
67747;SDS011;54543;50.712;6.070;2022-11-20T02:24:03;15.07;;;5.38;;
67747;SDS011;54543;50.712;6.070;2022-11-20T02:26:31;13.95;;;5.47;;
67747;SDS011;54543;50.712;6.070;2022-11-20T02:28:59;12.75;;;5.10;;
67747;SDS011;54543;50.712;6.070;2022-11-20T02:31:26;13.95;;;5.55;;
67747;SDS011;54543;50.712;6.070;2022-11-20T02:33:55;12.30;;;5.30;;
67747;SDS011;54543;50.712;6.070;2022-11-20T02:36:22;14.23;;;5.40;;
67747;SDS011;54543;50.712;6.070;2022-11-20T02:38:51;14.75;;;5.72;;
67747;SDS011;54543;50.712;6.070;2022-11-20T02:41:17;14.50;;;6.00;;
67747;SDS011;54543;50.712;6.070;2022-11-20T02:43:42;13.18;;;5.07;;
67747;SDS011;54543;50.712;6.070;2022-11-20T02:46:08;14.48;;;5.38;;
67747;SDS011;54543;50.712;6.070;2022-11-20T02:48:34;13.80;;;5.80;;
67747;SDS011;54543;50.712;6.070;2022-11-20T02:51:00;14.35;;;5.40;;
67747;SDS011;54543;50.712;6.070;2022-11-20T02:53:25;14.85;;;5.90;;
67747;SDS011;54543;50.712;6.070;2022-11-20T02:55:51;16.98;;;6.60;;
67747;SDS011;54543;50.712;6.070;2022-11-20T02:58:16;16.60;;;6.10;;
67747;SDS011;54543;50.712;6.070;2022-11-20T03:00:42;15.05;;;6.00;;
67747;SDS011;54543;50.712;6.070;2022-11-20T03:03:08;17.95;;;6.43;;
67747;SDS011;54543;50.712;6.070;2022-11-20T03:05:33;12.68;;;5.35;;
67747;SDS011;54543;50.712;6.070;2022-11-20T03:07:59;17.13;;;6.43;;
67747;SDS011;54543;50.712;6.070;2022-11-20T03:10:24;15.38;;;6.20;;
67747;SDS011;54543;50.712;6.070;2022-11-20T03:12:53;16.05;;;5.75;;
67747;SDS011;54543;50.712;6.070;2022-11-20T03:15:20;16.38;;;6.13;;
67747;SDS011;54543;50.712;6.070;2022-11-20T03:17:46;15.07;;;6.13;;
67747;SDS011;54543;50.712;6.070;2022-11-20T03:20:12;18.10;;;6.95;;
67747;SDS011;54543;50.712;6.070;2022-11-20T03:22:37;15.35;;;5.75;;
67747;SDS011;54543;50.712;6.070;2022-11-20T03:25:03;15.15;;;5.88;;
67747;SDS011;54543;50.712;6.070;2022-11-20T03:27:31;14.40;;;5.85;;
67747;SDS011;54543;50.712;6.070;2022-11-20T03:29:58;15.57;;;6.15;;
67747;SDS011;54543;50.712;6.070;2022-11-20T03:32:24;15.95;;;6.20;;
67747;SDS011;54543;50.712;6.070;2022-11-20T03:34:49;15.10;;;6.10;;
67747;SDS011;54543;50.712;6.070;2022-11-20T03:37:15;13.20;;;5.35;;
67747;SDS011;54543;50.712;6.070;2022-11-20T03:39:40;12.10;;;5.15;;
67747;SDS011;54543;50.712;6.070;2022-11-20T03:42:05;14.30;;;5.50;;
67747;SDS011;54543;50.712;6.070;2022-11-20T03:44:51;17.08;;;6.45;;
67747;SDS011;54543;50.712;6.070;2022-11-20T03:47:16;15.88;;;6.90;;
67747;SDS011;54543;50.712;6.070;2022-11-20T03:49:42;15.52;;;7.20;;
67747;SDS011;54543;50.712;6.070;2022-11-20T03:52:08;17.20;;;7.13;;
67747;SDS011;54543;50.712;6.070;2022-11-20T03:54:33;20.17;;;8.30;;
67747;SDS011;54543;50.712;6.070;2022-11-20T03:56:59;19.45;;;7.03;;
67747;SDS011;54543;50.712;6.070;2022-11-20T03:59:24;18.85;;;7.55;;
67747;SDS011;54543;50.712;6.070;2022-11-20T04:01:49;16.33;;;7.45;;
67747;SDS011;54543;50.712;6.070;2022-11-20T04:04:15;15.23;;;6.13;;
67747;SDS011;54543;50.712;6.070;2022-11-20T04:06:40;21.65;;;8.35;;
67747;SDS011;54543;50.712;6.070;2022-11-20T04:09:06;16.58;;;7.18;;
67747;SDS011;54543;50.712;6.070;2022-11-20T04:11:32;20.80;;;8.43;;
67747;SDS011;54543;50.712;6.070;2022-11-20T04:14:00;27.35;;;9.77;;
67747;SDS011;54543;50.712;6.070;2022-11-20T04:16:31;23.15;;;8.30;;
67747;SDS011;54543;50.712;6.070;2022-11-20T04:18:59;20.63;;;7.93;;
67747;SDS011;54543;50.712;6.070;2022-11-20T04:21:26;15.32;;;6.93;;
67747;SDS011;54543;50.712;6.070;2022-11-20T04:23:52;22.75;;;8.07;;
67747;SDS011;54543;50.712;6.070;2022-11-20T04:26:19;18.25;;;7.22;;
67747;SDS011;54543;50.712;6.070;2022-11-20T04:28:45;17.95;;;7.07;;
67747;SDS011;54543;50.712;6.070;2022-11-20T04:31:12;16.73;;;6.85;;
67747;SDS011;54543;50.712;6.070;2022-11-20T04:33:42;15.52;;;6.60;;
67747;SDS011;54543;50.712;6.070;2022-11-20T04:36:12;20.63;;;8.13;;
67747;SDS011;54543;50.712;6.070;2022-11-20T04:38:38;18.73;;;7.05;;
67747;SDS011;54543;50.712;6.070;2022-11-20T04:41:05;12.93;;;5.80;;
67747;SDS011;54543;50.712;6.070;2022-11-20T04:43:34;17.00;;;7.32;;
67747;SDS011;54543;50.712;6.070;2022-11-20T04:46:00;15.50;;;6.70;;
67747;SDS011;54543;50.712;6.070;2022-11-20T04:48:26;16.33;;;7.13;;
67747;SDS011;54543;50.712;6.070;2022-11-20T04:50:52;16.48;;;7.50;;
67747;SDS011;54543;50.712;6.070;2022-11-20T04:53:19;12.55;;;5.88;;
67747;SDS011;54543;50.712;6.070;2022-11-20T04:55:45;13.73;;;5.75;;
67747;SDS011;54543;50.712;6.070;2022-11-20T04:58:11;14.80;;;6.78;;
67747;SDS011;54543;50.712;6.070;2022-11-20T05:00:37;17.30;;;7.20;;
67747;SDS011;54543;50.712;6.070;2022-11-20T05:03:03;14.45;;;6.82;;
67747;SDS011;54543;50.712;6.070;2022-11-20T05:05:29;21.50;;;9.20;;
67747;SDS011;54543;50.712;6.070;2022-11-20T05:07:58;18.15;;;8.05;;
67747;SDS011;54543;50.712;6.070;2022-11-20T05:10:26;15.25;;;6.72;;
67747;SDS011;54543;50.712;6.070;2022-11-20T05:12:52;16.80;;;6.82;;
67747;SDS011;54543;50.712;6.070;2022-11-20T05:15:18;19.13;;;6.55;;
67747;SDS011;54543;50.712;6.070;2022-11-20T05:17:47;13.68;;;6.10;;
67747;SDS011;54543;50.712;6.070;2022-11-20T05:20:14;22.95;;;7.82;;
67747;SDS011;54543;50.712;6.070;2022-11-20T05:22:39;17.20;;;7.18;;
67747;SDS011;54543;50.712;6.070;2022-11-20T05:25:05;17.15;;;6.82;;
67747;SDS011;54543;50.712;6.070;2022-11-20T05:27:31;15.30;;;6.05;;
67747;SDS011;54543;50.712;6.070;2022-11-20T05:29:56;14.98;;;6.32;;
67747;SDS011;54543;50.712;6.070;2022-11-20T05:32:22;39.70;;;8.32;;
67747;SDS011;54543;50.712;6.070;2022-11-20T05:34:50;25.50;;;6.45;;
67747;SDS011;54543;50.712;6.070;2022-11-20T05:37:16;12.38;;;5.38;;
67747;SDS011;54543;50.712;6.070;2022-11-20T05:39:42;9.00;;;4.43;;
67747;SDS011;54543;50.712;6.070;2022-11-20T05:42:07;22.35;;;6.85;;
67747;SDS011;54543;50.712;6.070;2022-11-20T05:44:52;14.00;;;6.47;;
67747;SDS011;54543;50.712;6.070;2022-11-20T05:47:17;6.47;;;3.53;;
67747;SDS011;54543;50.712;6.070;2022-11-20T05:49:44;17.00;;;6.55;;
67747;SDS011;54543;50.712;6.070;2022-11-20T05:52:09;14.98;;;6.57;;
67747;SDS011;54543;50.712;6.070;2022-11-20T05:54:35;16.45;;;7.30;;
67747;SDS011;54543;50.712;6.070;2022-11-20T05:57:00;14.80;;;5.63;;
67747;SDS011;54543;50.712;6.070;2022-11-20T05:59:26;11.68;;;5.65;;
67747;SDS011;54543;50.712;6.070;2022-11-20T06:01:51;15.43;;;6.55;;
67747;SDS011;54543;50.712;6.070;2022-11-20T06:04:17;11.98;;;5.80;;
67747;SDS011;54543;50.712;6.070;2022-11-20T06:06:42;13.52;;;5.72;;
67747;SDS011;54543;50.712;6.070;2022-11-20T06:09:08;12.35;;;5.32;;
67747;SDS011;54543;50.712;6.070;2022-11-20T06:14:33;15.73;;;7.45;;
67747;SDS011;54543;50.712;6.070;2022-11-20T06:16:59;14.27;;;6.75;;
67747;SDS011;54543;50.712;6.070;2022-11-20T06:19:24;21.02;;;9.13;;
67747;SDS011;54543;50.712;6.070;2022-11-20T06:21:50;10.98;;;5.50;;
67747;SDS011;54543;50.712;6.070;2022-11-20T06:24:16;14.63;;;6.63;;
67747;SDS011;54543;50.712;6.070;2022-11-20T06:26:41;10.90;;;5.25;;
67747;SDS011;54543;50.712;6.070;2022-11-20T06:29:07;10.80;;;4.63;;
67747;SDS011;54543;50.712;6.070;2022-11-20T06:31:33;10.07;;;4.90;;
67747;SDS011;54543;50.712;6.070;2022-11-20T06:34:00;9.95;;;4.38;;
67747;SDS011;54543;50.712;6.070;2022-11-20T06:36:26;12.90;;;5.88;;
67747;SDS011;54543;50.712;6.070;2022-11-20T06:38:52;8.40;;;4.53;;
67747;SDS011;54543;50.712;6.070;2022-11-20T06:41:18;12.93;;;5.22;;
67747;SDS011;54543;50.712;6.070;2022-11-20T06:43:45;11.60;;;5.43;;
67747;SDS011;54543;50.712;6.070;2022-11-20T06:46:11;11.52;;;4.80;;
67747;SDS011;54543;50.712;6.070;2022-11-20T06:48:38;12.48;;;4.70;;
67747;SDS011;54543;50.712;6.070;2022-11-20T06:51:04;14.52;;;6.60;;
67747;SDS011;54543;50.712;6.070;2022-11-20T06:53:30;15.27;;;6.38;;
67747;SDS011;54543;50.712;6.070;2022-11-20T06:55:56;12.23;;;5.65;;
67747;SDS011;54543;50.712;6.070;2022-11-20T06:58:23;15.25;;;6.65;;
67747;SDS011;54543;50.712;6.070;2022-11-20T07:00:48;14.13;;;6.22;;
67747;SDS011;54543;50.712;6.070;2022-11-20T07:03:14;10.05;;;5.10;;
67747;SDS011;54543;50.712;6.070;2022-11-20T07:05:39;11.15;;;5.55;;
67747;SDS011;54543;50.712;6.070;2022-11-20T07:08:05;11.35;;;5.30;;
67747;SDS011;54543;50.712;6.070;2022-11-20T07:10:31;13.20;;;6.72;;
67747;SDS011;54543;50.712;6.070;2022-11-20T07:12:57;10.52;;;5.30;;
67747;SDS011;54543;50.712;6.070;2022-11-20T07:15:24;12.63;;;5.30;;
67747;SDS011;54543;50.712;6.070;2022-11-20T07:17:50;11.07;;;5.15;;
67747;SDS011;54543;50.712;6.070;2022-11-20T07:20:16;13.05;;;5.93;;
67747;SDS011;54543;50.712;6.070;2022-11-20T07:22:42;14.30;;;6.20;;
67747;SDS011;54543;50.712;6.070;2022-11-20T07:25:07;11.18;;;5.45;;
67747;SDS011;54543;50.712;6.070;2022-11-20T07:27:34;11.32;;;5.32;;
67747;SDS011;54543;50.712;6.070;2022-11-20T07:30:00;9.48;;;4.82;;
67747;SDS011;54543;50.712;6.070;2022-11-20T07:32:26;11.85;;;5.05;;
67747;SDS011;54543;50.712;6.070;2022-11-20T07:34:52;6.68;;;3.22;;
67747;SDS011;54543;50.712;6.070;2022-11-20T07:37:17;14.50;;;6.07;;
67747;SDS011;54543;50.712;6.070;2022-11-20T07:39:43;12.98;;;6.13;;
67747;SDS011;54543;50.712;6.070;2022-11-20T07:42:08;13.30;;;6.82;;
67747;SDS011;54543;50.712;6.070;2022-11-20T07:44:35;13.63;;;5.85;;
67747;SDS011;54543;50.712;6.070;2022-11-20T07:47:00;10.90;;;5.50;;
67747;SDS011;54543;50.712;6.070;2022-11-20T07:49:27;10.95;;;5.63;;
67747;SDS011;54543;50.712;6.070;2022-11-20T07:51:53;12.07;;;5.60;;
67747;SDS011;54543;50.712;6.070;2022-11-20T07:54:19;13.63;;;5.63;;
67747;SDS011;54543;50.712;6.070;2022-11-20T07:56:45;12.10;;;5.35;;
67747;SDS011;54543;50.712;6.070;2022-11-20T07:59:11;11.43;;;4.65;;
67747;SDS011;54543;50.712;6.070;2022-11-20T08:01:37;12.90;;;5.70;;
67747;SDS011;54543;50.712;6.070;2022-11-20T08:04:03;12.52;;;5.50;;
67747;SDS011;54543;50.712;6.070;2022-11-20T08:06:29;17.67;;;6.70;;
67747;SDS011;54543;50.712;6.070;2022-11-20T08:08:54;18.08;;;7.10;;
67747;SDS011;54543;50.712;6.070;2022-11-20T08:11:20;20.42;;;8.20;;
67747;SDS011;54543;50.712;6.070;2022-11-20T08:14:04;15.90;;;7.15;;
67747;SDS011;54543;50.712;6.070;2022-11-20T08:16:39;14.95;;;5.82;;
67747;SDS011;54543;50.712;6.070;2022-11-20T08:19:09;17.05;;;6.65;;
67747;SDS011;54543;50.712;6.070;2022-11-20T08:21:35;14.50;;;6.18;;
67747;SDS011;54543;50.712;6.070;2022-11-20T08:24:00;20.30;;;7.60;;
67747;SDS011;54543;50.712;6.070;2022-11-20T08:26:26;15.10;;;5.78;;
67747;SDS011;54543;50.712;6.070;2022-11-20T08:28:55;20.67;;;7.50;;
67747;SDS011;54543;50.712;6.070;2022-11-20T08:31:21;18.75;;;7.20;;
67747;SDS011;54543;50.712;6.070;2022-11-20T08:33:48;17.05;;;6.63;;
67747;SDS011;54543;50.712;6.070;2022-11-20T08:36:14;20.52;;;7.75;;
67747;SDS011;54543;50.712;6.070;2022-11-20T08:38:39;20.38;;;7.15;;
67747;SDS011;54543;50.712;6.070;2022-11-20T08:41:05;22.52;;;8.70;;
67747;SDS011;54543;50.712;6.070;2022-11-20T08:44:10;24.15;;;9.23;;
67747;SDS011;54543;50.712;6.070;2022-11-20T08:49:03;18.90;;;6.80;;
67747;SDS011;54543;50.712;6.070;2022-11-20T08:51:29;20.73;;;7.65;;
67747;SDS011;54543;50.712;6.070;2022-11-20T08:53:55;20.70;;;7.82;;
67747;SDS011;54543;50.712;6.070;2022-11-20T08:56:20;20.30;;;7.45;;
67747;SDS011;54543;50.712;6.070;2022-11-20T08:58:46;19.65;;;6.88;;
67747;SDS011;54543;50.712;6.070;2022-11-20T09:01:11;24.88;;;8.02;;
67747;SDS011;54543;50.712;6.070;2022-11-20T09:03:37;20.73;;;8.05;;
67747;SDS011;54543;50.712;6.070;2022-11-20T09:06:04;25.30;;;9.20;;
67747;SDS011;54543;50.712;6.070;2022-11-20T09:08:31;24.63;;;8.32;;
67747;SDS011;54543;50.712;6.070;2022-11-20T09:10:57;29.95;;;11.85;;
67747;SDS011;54543;50.712;6.070;2022-11-20T09:13:24;19.35;;;9.45;;
67747;SDS011;54543;50.712;6.070;2022-11-20T09:16:09;25.75;;;12.02;;
67747;SDS011;54543;50.712;6.070;2022-11-20T09:18:35;31.13;;;12.00;;
67747;SDS011;54543;50.712;6.070;2022-11-20T09:21:03;21.98;;;8.68;;
67747;SDS011;54543;50.712;6.070;2022-11-20T09:23:31;24.45;;;11.10;;
67747;SDS011;54543;50.712;6.070;2022-11-20T09:26:00;32.10;;;15.65;;
67747;SDS011;54543;50.712;6.070;2022-11-20T09:28:27;23.00;;;10.43;;
67747;SDS011;54543;50.712;6.070;2022-11-20T09:30:53;24.38;;;9.63;;
67747;SDS011;54543;50.712;6.070;2022-11-20T09:33:18;31.67;;;11.27;;
67747;SDS011;54543;50.712;6.070;2022-11-20T09:35:44;18.98;;;7.65;;
67747;SDS011;54543;50.712;6.070;2022-11-20T09:38:10;22.30;;;9.43;;
67747;SDS011;54543;50.712;6.070;2022-11-20T09:40:43;19.80;;;8.05;;
67747;SDS011;54543;50.712;6.070;2022-11-20T09:51:53;23.40;;;13.90;;
67747;SDS011;54543;50.712;6.070;2022-11-20T09:54:27;15.40;;;7.97;;
67747;SDS011;54543;50.712;6.070;2022-11-20T09:56:56;23.35;;;9.48;;
67747;SDS011;54543;50.712;6.070;2022-11-20T10:02:00;18.55;;;8.30;;
67747;SDS011;54543;50.712;6.070;2022-11-20T10:04:28;18.17;;;8.18;;
67747;SDS011;54543;50.712;6.070;2022-11-20T10:07:02;19.25;;;8.25;;
67747;SDS011;54543;50.712;6.070;2022-11-20T10:10:16;18.30;;;6.70;;
67747;SDS011;54543;50.712;6.070;2022-11-20T10:15:45;17.10;;;6.47;;
67747;SDS011;54543;50.712;6.070;2022-11-20T10:18:24;16.08;;;6.20;;
67747;SDS011;54543;50.712;6.070;2022-11-20T10:23:52;20.23;;;7.05;;
67747;SDS011;54543;50.712;6.070;2022-11-20T10:32:02;13.48;;;5.20;;
67747;SDS011;54543;50.712;6.070;2022-11-20T10:34:41;12.27;;;5.85;;
67747;SDS011;54543;50.712;6.070;2022-11-20T10:37:30;15.00;;;6.85;;
67747;SDS011;54543;50.712;6.070;2022-11-20T10:40:01;17.50;;;9.05;;
67747;SDS011;54543;50.712;6.070;2022-11-20T10:42:44;15.20;;;5.82;;
67747;SDS011;54543;50.712;6.070;2022-11-20T10:45:19;15.45;;;7.05;;
67747;SDS011;54543;50.712;6.070;2022-11-20T10:50:33;11.45;;;5.50;;
67747;SDS011;54543;50.712;6.070;2022-11-20T10:58:10;13.73;;;6.38;;
67747;SDS011;54543;50.712;6.070;2022-11-20T11:00:39;12.07;;;5.57;;
67747;SDS011;54543;50.712;6.070;2022-11-20T11:03:14;13.25;;;5.38;;
67747;SDS011;54543;50.712;6.070;2022-11-20T11:05:50;10.38;;;4.97;;
67747;SDS011;54543;50.712;6.070;2022-11-20T11:08:20;15.48;;;6.45;;
67747;SDS011;54543;50.712;6.070;2022-11-20T11:13:20;13.20;;;6.03;;
67747;SDS011;54543;50.712;6.070;2022-11-20T11:15:47;14.10;;;5.90;;
67747;SDS011;54543;50.712;6.070;2022-11-20T11:18:22;12.45;;;5.47;;
67747;SDS011;54543;50.712;6.070;2022-11-20T11:20:50;15.00;;;7.18;;
67747;SDS011;54543;50.712;6.070;2022-11-20T11:23:59;12.68;;;5.93;;
67747;SDS011;54543;50.712;6.070;2022-11-20T11:26:17;12.55;;;5.95;;
67747;SDS011;54543;50.712;6.070;2022-11-20T11:28:57;8.88;;;4.78;;
67747;SDS011;54543;50.712;6.070;2022-11-20T11:31:30;10.77;;;5.85;;
67747;SDS011;54543;50.712;6.070;2022-11-20T11:34:16;10.32;;;5.40;;
67747;SDS011;54543;50.712;6.070;2022-11-20T11:36:42;9.07;;;4.90;;
67747;SDS011;54543;50.712;6.070;2022-11-20T11:39:18;10.05;;;4.93;;
67747;SDS011;54543;50.712;6.070;2022-11-20T11:41:45;9.80;;;4.82;;
67747;SDS011;54543;50.712;6.070;2022-11-20T11:44:17;12.27;;;5.18;;
67747;SDS011;54543;50.712;6.070;2022-11-20T11:47:24;11.30;;;5.60;;
67747;SDS011;54543;50.712;6.070;2022-11-20T11:53:21;23.60;;;18.08;;
67747;SDS011;54543;50.712;6.070;2022-11-20T11:55:43;21.33;;;13.73;;
67747;SDS011;54543;50.712;6.070;2022-11-20T12:06:50;7.45;;;4.72;;
67747;SDS011;54543;50.712;6.070;2022-11-20T12:09:21;6.60;;;4.05;;
67747;SDS011;54543;50.712;6.070;2022-11-20T12:12:05;9.70;;;4.80;;
67747;SDS011;54543;50.712;6.070;2022-11-20T12:14:36;8.32;;;4.35;;
67747;SDS011;54543;50.712;6.070;2022-11-20T12:17:03;6.35;;;3.83;;
67747;SDS011;54543;50.712;6.070;2022-11-20T12:19:30;13.27;;;3.80;;
67747;SDS011;54543;50.712;6.070;2022-11-20T12:27:40;6.63;;;3.30;;
67747;SDS011;54543;50.712;6.070;2022-11-20T12:30:24;7.75;;;3.90;;
67747;SDS011;54543;50.712;6.070;2022-11-20T12:44:28;5.15;;;2.78;;
67747;SDS011;54543;50.712;6.070;2022-11-20T12:49:48;6.85;;;3.80;;
67747;SDS011;54543;50.712;6.070;2022-11-20T12:55:25;5.88;;;3.22;;
67747;SDS011;54543;50.712;6.070;2022-11-20T13:00:53;4.50;;;2.90;;
67747;SDS011;54543;50.712;6.070;2022-11-20T13:06:05;4.55;;;2.25;;
67747;SDS011;54543;50.712;6.070;2022-11-20T13:08:39;3.75;;;2.20;;
67747;SDS011;54543;50.712;6.070;2022-11-20T13:13:54;3.15;;;2.00;;
67747;SDS011;54543;50.712;6.070;2022-11-20T13:19:25;3.58;;;2.08;;
67747;SDS011;54543;50.712;6.070;2022-11-20T13:21:52;3.40;;;2.25;;
67747;SDS011;54543;50.712;6.070;2022-11-20T13:29:38;4.15;;;2.22;;
67747;SDS011;54543;50.712;6.070;2022-11-20T13:32:16;3.05;;;1.70;;
67747;SDS011;54543;50.712;6.070;2022-11-20T13:34:53;5.60;;;1.88;;
67747;SDS011;54543;50.712;6.070;2022-11-20T13:37:44;9.68;;;7.65;;
67747;SDS011;54543;50.712;6.070;2022-11-20T13:42:44;11.43;;;8.20;;
67747;SDS011;54543;50.712;6.070;2022-11-20T13:45:27;8.80;;;5.95;;
67747;SDS011;54543;50.712;6.070;2022-11-20T13:47:55;12.52;;;6.93;;
67747;SDS011;54543;50.712;6.070;2022-11-20T13:50:27;15.40;;;7.57;;
67747;SDS011;54543;50.712;6.070;2022-11-20T13:53:21;19.80;;;10.55;;
67747;SDS011;54543;50.712;6.070;2022-11-20T13:56:32;11.20;;;5.95;;
67747;SDS011;54543;50.712;6.070;2022-11-20T14:02:16;41.15;;;17.95;;
67747;SDS011;54543;50.712;6.070;2022-11-20T14:04:49;24.20;;;11.10;;
67747;SDS011;54543;50.712;6.070;2022-11-20T14:07:18;119.63;;;41.10;;
67747;SDS011;54543;50.712;6.070;2022-11-20T14:09:53;57.40;;;23.05;;
67747;SDS011;54543;50.712;6.070;2022-11-20T14:12:27;130.38;;;41.00;;
67747;SDS011;54543;50.712;6.070;2022-11-20T14:14:55;55.63;;;21.80;;
67747;SDS011;54543;50.712;6.070;2022-11-20T14:17:21;77.20;;;27.08;;
67747;SDS011;54543;50.712;6.070;2022-11-20T14:20:02;88.80;;;31.00;;
67747;SDS011;54543;50.712;6.070;2022-11-20T14:22:30;101.32;;;33.92;;
67747;SDS011;54543;50.712;6.070;2022-11-20T14:27:37;106.25;;;36.22;;
67747;SDS011;54543;50.712;6.070;2022-11-20T14:30:05;212.88;;;69.03;;
67747;SDS011;54543;50.712;6.070;2022-11-20T14:32:38;51.33;;;22.05;;
67747;SDS011;54543;50.712;6.070;2022-11-20T14:35:07;70.95;;;25.55;;
67747;SDS011;54543;50.712;6.070;2022-11-20T14:37:36;40.35;;;17.65;;
67747;SDS011;54543;50.712;6.070;2022-11-20T14:40:05;79.60;;;27.60;;
67747;SDS011;54543;50.712;6.070;2022-11-20T14:42:47;38.72;;;16.00;;
67747;SDS011;54543;50.712;6.070;2022-11-20T14:45:12;37.78;;;14.38;;
67747;SDS011;54543;50.712;6.070;2022-11-20T14:47:39;39.53;;;14.15;;
67747;SDS011;54543;50.712;6.070;2022-11-20T14:53:03;33.60;;;13.40;;
67747;SDS011;54543;50.712;6.070;2022-11-20T14:55:32;82.90;;;29.35;;
67747;SDS011;54543;50.712;6.070;2022-11-20T14:58:01;27.30;;;14.57;;
67747;SDS011;54543;50.712;6.070;2022-11-20T15:00:29;14.95;;;8.18;;
67747;SDS011;54543;50.712;6.070;2022-11-20T15:02:56;12.98;;;5.72;;
67747;SDS011;54543;50.712;6.070;2022-11-20T15:05:24;10.38;;;4.68;;
67747;SDS011;54543;50.712;6.070;2022-11-20T15:08:05;8.02;;;3.63;;
67747;SDS011;54543;50.712;6.070;2022-11-20T15:10:33;5.68;;;3.30;;
67747;SDS011;54543;50.712;6.070;2022-11-20T15:13:00;5.10;;;3.38;;
67747;SDS011;54543;50.712;6.070;2022-11-20T15:15:49;4.82;;;3.10;;
67747;SDS011;54543;50.712;6.070;2022-11-20T15:18:19;4.30;;;2.75;;
67747;SDS011;54543;50.712;6.070;2022-11-20T15:21:16;4.75;;;3.30;;
67747;SDS011;54543;50.712;6.070;2022-11-20T15:23:43;3.65;;;2.17;;
67747;SDS011;54543;50.712;6.070;2022-11-20T15:26:10;4.70;;;3.10;;
67747;SDS011;54543;50.712;6.070;2022-11-20T15:28:41;5.47;;;2.53;;
67747;SDS011;54543;50.712;6.070;2022-11-20T15:33:38;4.47;;;2.35;;
67747;SDS011;54543;50.712;6.070;2022-11-20T15:36:04;4.60;;;2.60;;
67747;SDS011;54543;50.712;6.070;2022-11-20T15:38:30;4.43;;;2.30;;
67747;SDS011;54543;50.712;6.070;2022-11-20T15:40:56;6.35;;;3.20;;
67747;SDS011;54543;50.712;6.070;2022-11-20T15:43:22;4.47;;;2.72;;
67747;SDS011;54543;50.712;6.070;2022-11-20T15:45:48;4.22;;;2.50;;
67747;SDS011;54543;50.712;6.070;2022-11-20T15:53:42;5.05;;;2.70;;
67747;SDS011;54543;50.712;6.070;2022-11-20T15:56:13;4.43;;;2.95;;
67747;SDS011;54543;50.712;6.070;2022-11-20T15:58:39;5.82;;;2.97;;
67747;SDS011;54543;50.712;6.070;2022-11-20T16:01:09;4.90;;;2.65;;
67747;SDS011;54543;50.712;6.070;2022-11-20T16:03:36;4.47;;;2.47;;
67747;SDS011;54543;50.712;6.070;2022-11-20T16:06:02;3.05;;;1.92;;
67747;SDS011;54543;50.712;6.070;2022-11-20T16:08:28;3.08;;;1.70;;
67747;SDS011;54543;50.712;6.070;2022-11-20T16:10:53;3.80;;;2.40;;
67747;SDS011;54543;50.712;6.070;2022-11-20T16:13:19;4.85;;;1.80;;
67747;SDS011;54543;50.712;6.070;2022-11-20T16:16:04;3.70;;;2.15;;
67747;SDS011;54543;50.712;6.070;2022-11-20T16:18:33;3.47;;;1.80;;
67747;SDS011;54543;50.712;6.070;2022-11-20T16:20:58;3.58;;;1.60;;
67747;SDS011;54543;50.712;6.070;2022-11-20T16:23:24;2.55;;;1.70;;
67747;SDS011;54543;50.712;6.070;2022-11-20T16:25:50;1.95;;;1.50;;
67747;SDS011;54543;50.712;6.070;2022-11-20T16:28:16;1.77;;;1.48;;
67747;SDS011;54543;50.712;6.070;2022-11-20T16:30:42;1.25;;;1.15;;
67747;SDS011;54543;50.712;6.070;2022-11-20T16:33:09;2.80;;;1.40;;
67747;SDS011;54543;50.712;6.070;2022-11-20T16:35:37;1.85;;;1.48;;
67747;SDS011;54543;50.712;6.070;2022-11-20T16:38:02;4.22;;;2.00;;
67747;SDS011;54543;50.712;6.070;2022-11-20T16:40:28;5.20;;;2.00;;